createdAt,value
2023-02-03T00:00:58.966Z,80.67
2023-02-03T00:03:32.788Z,80.07
2023-02-03T00:06:04.027Z,80.39
2023-02-03T00:08:33.886Z,80.34
2023-02-03T00:11:07.496Z,80.62
2023-02-03T00:13:37.139Z,80.37
2023-02-03T00:16:10.484Z,80.34
2023-02-03T00:18:39.707Z,80.28
2023-02-03T00:21:10.344Z,80.43
2023-02-03T00:23:40.603Z,80.66
2023-02-03T00:26:10.234Z,80.83
2023-02-03T00:28:41.967Z,80.97
2023-02-03T00:31:25.122Z,80.93
2023-02-03T00:33:57.169Z,80.52
2023-02-03T00:36:30.286Z,80.85
2023-02-03T00:39:01.023Z,80.66
2023-02-03T00:41:54.548Z,80.89
2023-02-03T00:44:33.671Z,80.66
2023-02-03T00:47:25.416Z,80.58
2023-02-03T00:49:57.267Z,80.49
2023-02-03T00:52:26.910Z,80.50
2023-02-03T00:54:58.981Z,80.09
2023-02-03T00:57:28.378Z,80.22
2023-02-03T01:00:00.253Z,80.16
2023-02-03T01:02:30.812Z,80.17
2023-02-03T01:05:01.505Z,80.32
2023-02-03T01:07:33.484Z,80.30
2023-02-03T01:10:05.562Z,80.40
2023-02-03T01:12:35.976Z,80.55
2023-02-03T01:15:07.941Z,80.78
2023-02-03T01:17:39.244Z,80.80
2023-02-03T01:20:13.336Z,80.71
2023-02-03T01:22:43.024Z,80.74
2023-02-03T01:25:15.436Z,80.88
2023-02-03T01:27:46.987Z,80.95
2023-02-03T01:30:17.335Z,81.04
2023-02-03T01:32:50.244Z,80.95
2023-02-03T01:35:20.557Z,80.92
2023-02-03T01:37:52.854Z,80.93
2023-02-03T01:40:24.947Z,80.94
2023-02-03T01:42:58.117Z,81.13
2023-02-03T01:45:28.823Z,81.15
2023-02-03T01:48:00.496Z,81.33
2023-02-03T01:50:38.645Z,81.21
2023-02-03T01:53:11.260Z,81.20
2023-02-03T01:55:47.488Z,81.02
2023-02-03T01:58:31.879Z,81.08
2023-02-03T02:01:02.717Z,81.01
2023-02-03T02:03:39.620Z,81.24
2023-02-03T02:06:13.668Z,81.18
2023-02-03T02:08:48.238Z,81.28
2023-02-03T02:11:18.995Z,81.31
2023-02-03T02:13:50.291Z,81.72
2023-02-03T02:16:26.714Z,81.62
2023-02-03T02:19:14.756Z,81.53
2023-02-03T02:22:00.065Z,81.88
2023-02-03T02:24:47.963Z,81.80
2023-02-03T02:27:18.643Z,81.79
2023-02-03T02:30:07.432Z,81.68
2023-02-03T02:32:43.236Z,81.75
2023-02-03T02:35:13.294Z,81.74
2023-02-03T02:37:52.863Z,81.65
2023-02-03T02:40:31.877Z,81.73
2023-02-03T02:43:13.844Z,81.86
2023-02-03T02:45:49.659Z,81.86
2023-02-03T02:48:37.811Z,81.93
2023-02-03T02:51:09.942Z,81.98
2023-02-03T02:53:43.372Z,81.85
2023-02-03T02:56:15.688Z,81.73
2023-02-03T02:58:50.190Z,81.75
2023-02-03T03:01:22.220Z,81.80
2023-02-03T03:03:53.092Z,81.86
2023-02-03T03:06:27.349Z,82.04
2023-02-03T03:09:00.362Z,82.17
2023-02-03T03:11:35.231Z,82.18
2023-02-03T03:14:06.587Z,82.15
2023-02-03T03:16:39.531Z,82.03
2023-02-03T03:19:12.202Z,81.93
2023-02-03T03:21:45.652Z,82.17
2023-02-03T03:24:17.657Z,82.04
2023-02-03T03:26:52.485Z,82.45
2023-02-03T03:29:29.588Z,82.27
2023-02-03T03:32:02.372Z,82.18
2023-02-03T03:34:34.534Z,82.18
2023-02-03T03:37:15.371Z,82.13
2023-02-03T03:39:49.428Z,82.17
2023-02-03T03:42:24.965Z,82.49
2023-02-03T03:44:58.576Z,82.36
2023-02-03T03:47:35.756Z,82.61
2023-02-03T03:50:08.058Z,82.52
2023-02-03T03:52:38.441Z,82.43
2023-02-03T03:55:11.585Z,82.43
2023-02-03T03:57:55.649Z,82.50
2023-02-03T04:00:28.772Z,82.62
2023-02-03T04:03:01.606Z,82.57
2023-02-03T04:05:33.116Z,82.62
2023-02-03T04:08:04.109Z,82.61
2023-02-03T04:10:36.411Z,82.71
2023-02-03T04:13:09.054Z,82.77
2023-02-03T04:15:40.287Z,82.68
2023-02-03T04:18:12.410Z,82.67
2023-02-03T04:20:43.150Z,82.71
2023-02-03T04:23:14.445Z,82.70
2023-02-03T04:25:44.582Z,82.84
2023-02-03T04:28:16.364Z,82.76
2023-02-03T04:30:47.641Z,83.05
2023-02-03T04:33:19.150Z,82.90
2023-02-03T04:35:48.117Z,82.77
2023-02-03T04:38:18.996Z,82.83
2023-02-03T04:40:56.134Z,82.77
2023-02-03T04:43:27.204Z,82.83
2023-02-03T04:45:59.833Z,82.94
2023-02-03T04:48:30.895Z,82.74
2023-02-03T04:51:04.981Z,82.90
2023-02-03T04:53:35.687Z,82.82
2023-02-03T04:56:08.421Z,82.91
2023-02-03T04:58:37.559Z,82.81
2023-02-03T05:01:08.392Z,83.07
2023-02-03T05:03:41.881Z,83.00
2023-02-03T05:06:13.230Z,82.92
2023-02-03T05:08:45.217Z,82.86
2023-02-03T05:11:16.759Z,82.80
2023-02-03T05:13:47.066Z,82.74
2023-02-03T05:16:18.687Z,82.83
2023-02-03T05:18:49.363Z,82.84
2023-02-03T05:21:20.578Z,82.85
2023-02-03T05:23:51.751Z,82.75
2023-02-03T05:26:23.065Z,82.91
2023-02-03T05:28:56.615Z,82.95
2023-02-03T05:32:06.941Z,82.87
2023-02-03T05:34:50.486Z,82.98
2023-02-03T05:37:21.590Z,82.89
2023-02-03T05:39:57.317Z,83.10
2023-02-03T05:42:29.240Z,83.14
2023-02-03T05:45:00.035Z,83.05
2023-02-03T05:47:35.523Z,83.06
2023-02-03T05:50:10.399Z,83.00
2023-02-03T05:53:02.690Z,83.04
2023-02-03T05:55:34.066Z,82.89
2023-02-03T05:58:04.999Z,82.98
2023-02-03T06:00:37.172Z,83.09
2023-02-03T06:03:07.151Z,83.08
2023-02-03T06:05:45.326Z,83.09
2023-02-03T06:08:36.540Z,83.29
2023-02-03T06:11:08.662Z,83.31
2023-02-03T06:13:37.615Z,83.06
2023-02-03T06:16:11.194Z,83.32
2023-02-03T06:18:43.801Z,83.28
2023-02-03T06:21:13.665Z,83.42
2023-02-03T06:23:46.893Z,83.19
2023-02-03T06:26:17.271Z,83.21
2023-02-03T06:28:47.581Z,83.17
2023-02-03T06:31:17.066Z,82.99
2023-02-03T06:33:46.688Z,83.14
2023-02-03T06:36:16.053Z,83.13
2023-02-03T06:38:45.713Z,83.26
2023-02-03T06:41:22.436Z,83.15
2023-02-03T06:43:55.230Z,83.15
2023-02-03T06:46:29.719Z,83.32
2023-02-03T06:49:05.896Z,83.20
2023-02-03T06:51:37.726Z,83.39
2023-02-03T06:54:10.573Z,83.22
2023-02-03T06:56:40.165Z,83.17
2023-02-03T06:59:11.868Z,83.19
2023-02-03T07:01:47.910Z,83.23
2023-02-03T07:04:17.747Z,83.14
2023-02-03T07:07:09.816Z,83.11
2023-02-03T07:09:52.078Z,83.17
2023-02-03T07:12:22.374Z,83.29
2023-02-03T07:14:52.782Z,83.27
2023-02-03T07:17:23.692Z,83.28
2023-02-03T07:19:53.998Z,83.36
2023-02-03T07:22:23.661Z,83.44
2023-02-03T07:25:01.018Z,83.25
2023-02-03T07:27:39.181Z,83.25
2023-02-03T07:30:24.179Z,83.29
2023-02-03T07:32:55.858Z,83.28
2023-02-03T07:35:27.578Z,83.35
2023-02-03T07:37:57.767Z,83.40
2023-02-03T07:40:34.350Z,83.49
2023-02-03T07:43:29.967Z,83.48
2023-02-03T07:46:00.747Z,83.53
2023-02-03T07:48:32.558Z,83.64
2023-02-03T07:51:02.826Z,83.47
2023-02-03T07:53:34.520Z,83.47
2023-02-03T07:56:13.221Z,83.54
2023-02-03T07:58:43.626Z,83.61
2023-02-03T08:01:17.108Z,83.46
2023-02-03T08:03:50.521Z,83.41
2023-02-03T08:06:27.012Z,83.41
2023-02-03T08:09:18.659Z,83.56
2023-02-03T08:11:51.307Z,83.48
2023-02-03T08:14:22.756Z,83.61
2023-02-03T08:17:05.698Z,83.66
2023-02-03T08:19:36.283Z,83.63
2023-02-03T08:22:07.243Z,83.62
2023-02-03T08:24:39.255Z,83.54
2023-02-03T08:27:09.510Z,83.47
2023-02-03T08:29:38.615Z,83.57
2023-02-03T08:32:12.205Z,83.75
2023-02-03T08:37:28.647Z,83.69
2023-02-03T08:40:01.607Z,83.49
2023-02-03T08:42:34.375Z,83.53
2023-02-03T08:45:07.551Z,83.53
2023-02-03T08:47:42.336Z,83.73
2023-02-03T08:50:13.376Z,83.71
2023-02-03T08:52:44.427Z,83.63
2023-02-03T08:55:16.029Z,83.62
2023-02-03T08:57:47.471Z,83.20
2023-02-03T09:00:19.989Z,83.06
2023-02-03T09:02:49.863Z,83.27
2023-02-03T09:05:20.860Z,83.43
2023-02-03T09:07:53.530Z,83.58
2023-02-03T09:10:26.817Z,83.42
2023-02-03T09:12:58.005Z,83.31
2023-02-03T09:15:28.596Z,83.27
2023-02-03T09:18:00.328Z,83.77
2023-02-03T09:20:30.910Z,83.69
2023-02-03T09:23:01.182Z,83.71
2023-02-03T09:25:31.500Z,84.07
2023-02-03T09:28:05.147Z,84.10
2023-02-03T09:30:34.467Z,84.16
2023-02-03T09:33:05.019Z,83.99
2023-02-03T09:35:34.978Z,84.08
2023-02-03T09:38:07.251Z,84.24
2023-02-03T09:40:37.764Z,84.21
2023-02-03T09:43:24.562Z,84.09
2023-02-03T09:45:53.786Z,84.25
2023-02-03T09:48:25.049Z,84.27
2023-02-03T09:50:56.787Z,84.49
2023-02-03T09:53:33.838Z,84.43
2023-02-03T09:56:04.668Z,84.22
2023-02-03T09:58:35.168Z,84.52
2023-02-03T10:01:10.297Z,84.71
2023-02-03T10:03:58.888Z,84.53
2023-02-03T10:06:36.634Z,84.38
2023-02-03T10:09:14.744Z,84.26
2023-02-03T10:12:02.546Z,84.54
2023-02-03T10:14:39.581Z,84.76
2023-02-03T10:17:30.761Z,84.63
2023-02-03T10:20:11.389Z,84.56
2023-02-03T10:22:46.223Z,84.60
2023-02-03T10:25:38.050Z,84.60
2023-02-03T10:28:20.070Z,84.39
2023-02-03T10:30:57.350Z,84.53
2023-02-03T10:33:28.747Z,84.44
2023-02-03T10:36:16.171Z,84.54
2023-02-03T10:38:58.200Z,84.49
2023-02-03T10:41:31.188Z,84.54
2023-02-03T10:44:07.418Z,84.50
2023-02-03T10:46:38.633Z,84.61
2023-02-03T10:49:07.662Z,84.62
2023-02-03T10:51:53.391Z,84.63
2023-02-03T10:54:30.140Z,84.69
2023-02-03T10:57:04.838Z,84.24
2023-02-03T10:59:38.598Z,84.55
2023-02-03T11:02:23.367Z,84.42
2023-02-03T11:05:09.832Z,84.45
2023-02-03T11:07:39.227Z,84.69
2023-02-03T11:10:23.584Z,84.45
2023-02-03T11:12:54.304Z,84.55
2023-02-03T11:15:25.901Z,84.54
2023-02-03T11:17:56.727Z,84.65
2023-02-03T11:20:31.242Z,84.84
2023-02-03T11:23:05.034Z,84.88
2023-02-03T11:25:34.153Z,84.73
2023-02-03T11:28:05.478Z,84.92
2023-02-03T11:30:35.818Z,84.88
2023-02-03T11:33:18.021Z,84.83
2023-02-03T11:36:00.653Z,84.80
2023-02-03T11:38:36.966Z,85.11
2023-02-03T11:41:07.537Z,84.85
2023-02-03T11:43:39.384Z,85.00
2023-02-03T11:46:11.891Z,84.86
2023-02-03T11:48:52.335Z,84.58
2023-02-03T11:51:48.497Z,84.86
2023-02-03T11:54:48.799Z,85.01
2023-02-03T11:57:26.611Z,84.94
2023-02-03T12:00:13.607Z,84.74
2023-02-03T12:02:50.536Z,85.04
2023-02-03T12:05:24.056Z,84.93
2023-02-03T12:08:02.195Z,85.11
2023-02-03T12:11:00.107Z,85.35
2023-02-03T12:13:48.759Z,85.31
2023-02-03T12:16:19.660Z,85.40
2023-02-03T12:18:52.410Z,85.38
2023-02-03T12:21:57.308Z,85.01
2023-02-03T12:24:53.634Z,85.05
2023-02-03T12:27:39.577Z,85.03
2023-02-03T12:30:16.489Z,84.97
2023-02-03T12:32:57.113Z,84.95
2023-02-03T12:35:35.885Z,85.29
2023-02-03T12:38:05.029Z,85.22
2023-02-03T12:40:49.448Z,85.05
2023-02-03T12:43:25.252Z,85.41
2023-02-03T12:46:07.316Z,85.79
2023-02-03T12:48:56.558Z,85.85
2023-02-03T12:51:35.623Z,85.98
2023-02-03T12:54:13.572Z,85.67
2023-02-03T12:56:46.379Z,85.68
2023-02-03T12:59:18.908Z,85.78
2023-02-03T13:01:51.739Z,86.00
2023-02-03T13:04:42.234Z,85.92
2023-02-03T13:07:19.115Z,86.25
2023-02-03T13:10:08.351Z,86.44
2023-02-03T13:12:41.958Z,86.54
2023-02-03T13:15:34.129Z,86.46
2023-02-03T13:18:16.100Z,86.28
2023-02-03T13:20:47.567Z,86.28
2023-02-03T13:23:19.567Z,86.47
2023-02-03T13:25:48.789Z,86.54
2023-02-03T13:28:44.068Z,86.49
2023-02-03T13:31:16.281Z,86.87
2023-02-03T13:34:03.843Z,87.53
2023-02-03T13:36:39.003Z,88.00
2023-02-03T13:39:26.107Z,87.79
2023-02-03T13:42:08.926Z,88.21
2023-02-03T13:44:39.333Z,87.94
2023-02-03T13:47:15.454Z,87.90
2023-02-03T13:49:50.072Z,89.95
2023-02-03T13:52:36.937Z,89.37
2023-02-03T13:55:07.722Z,88.62
2023-02-03T13:57:38.302Z,88.73
2023-02-03T14:00:29.497Z,88.74
2023-02-03T14:03:03.491Z,88.76
2023-02-03T14:05:54.795Z,88.74
2023-02-03T14:08:28.698Z,88.52
2023-02-03T14:11:17.695Z,88.33
2023-02-03T14:13:48.867Z,88.56
2023-02-03T14:16:25.656Z,88.68
2023-02-03T14:18:57.312Z,88.38
2023-02-03T14:21:27.833Z,88.50
2023-02-03T14:24:03.153Z,89.27
2023-02-03T14:26:53.482Z,89.22
2023-02-03T14:29:35.916Z,89.26
2023-02-03T14:32:09.487Z,89.52
2023-02-03T14:34:45.698Z,89.56
2023-02-03T14:37:26.750Z,89.59
2023-02-03T14:40:11.381Z,89.66
2023-02-03T14:42:53.911Z,89.68
2023-02-03T14:45:26.765Z,89.81
2023-02-03T14:48:12.866Z,89.95
2023-02-03T14:50:51.007Z,89.73
2023-02-03T14:53:40.000Z,89.80
2023-02-03T14:56:28.338Z,89.69
2023-02-03T14:59:04.831Z,89.63
2023-02-03T15:01:36.969Z,89.57
2023-02-03T15:04:13.961Z,89.55
2023-02-03T15:06:47.636Z,89.52
2023-02-03T15:09:23.579Z,89.59
2023-02-03T15:11:54.894Z,89.51
2023-02-03T15:14:26.531Z,89.74
2023-02-03T15:16:59.188Z,90.16
2023-02-03T15:19:29.952Z,90.17
2023-02-03T15:22:00.833Z,90.00
2023-02-03T15:24:38.094Z,90.11
2023-02-03T15:27:20.726Z,90.24
2023-02-03T15:29:49.539Z,92.75
2023-02-03T15:32:29.440Z,92.77
2023-02-03T15:34:59.029Z,92.08
2023-02-03T15:37:40.390Z,91.35
2023-02-03T15:40:16.303Z,91.75
2023-02-03T15:43:02.995Z,91.37
2023-02-03T15:45:36.250Z,91.06
2023-02-03T15:48:15.452Z,91.49
2023-02-03T15:50:50.934Z,91.18
2023-02-03T15:53:25.106Z,91.02
2023-02-03T15:56:01.091Z,91.05
2023-02-03T15:58:31.552Z,91.45
2023-02-03T16:01:08.527Z,91.55
2023-02-03T16:03:43.368Z,91.04
2023-02-03T16:06:19.645Z,91.28
2023-02-03T16:08:52.394Z,91.53
2023-02-03T16:11:26.315Z,91.25
2023-02-03T16:13:57.466Z,90.98
2023-02-03T16:16:31.273Z,90.66
2023-02-03T16:19:09.683Z,90.53
2023-02-03T16:21:52.258Z,90.39
2023-02-03T16:24:34.406Z,90.27
2023-02-03T16:27:22.142Z,90.45
2023-02-03T16:30:13.747Z,90.38
2023-02-03T16:33:02.446Z,90.20
2023-02-03T16:35:51.110Z,90.08
2023-02-03T16:38:39.577Z,89.96
2023-02-03T16:41:33.309Z,89.98
2023-02-03T16:44:21.459Z,90.10
2023-02-03T16:47:13.315Z,90.02
2023-02-03T16:50:01.064Z,89.82
2023-02-03T16:52:32.084Z,89.90
2023-02-03T16:55:02.515Z,89.79
2023-02-03T16:57:33.301Z,89.76
2023-02-03T17:00:02.677Z,89.76
2023-02-03T17:02:31.617Z,89.82
2023-02-03T17:05:00.585Z,89.75
2023-02-03T17:07:29.297Z,89.81
2023-02-03T17:09:58.104Z,89.81
2023-02-03T17:12:31.123Z,89.80
2023-02-03T17:15:00.473Z,89.74
2023-02-03T17:17:37.465Z,89.84
2023-02-03T17:20:10.882Z,89.75
2023-02-03T17:22:41.562Z,89.73
2023-02-03T17:25:12.203Z,89.68
2023-02-03T17:27:43.217Z,89.69
2023-02-03T17:30:13.442Z,89.77
2023-02-03T17:32:43.090Z,89.77
2023-02-03T17:35:11.925Z,89.74
2023-02-03T17:37:41.438Z,89.69
2023-02-03T17:54:18.357Z,90.55
2023-02-03T17:56:50.100Z,90.38
2023-02-03T17:59:21.815Z,90.25
2023-02-03T18:01:55.338Z,90.09
2023-02-03T18:04:26.270Z,90.20
2023-02-03T18:06:55.839Z,90.40
2023-02-03T18:09:31.732Z,90.35
2023-02-03T18:12:05.087Z,90.11
2023-02-03T18:14:37.225Z,90.09
2023-02-03T18:17:09.985Z,90.00
2023-02-03T18:19:42.666Z,89.85
2023-02-03T18:22:19.029Z,90.04
2023-02-03T18:24:56.193Z,90.04
2023-02-03T18:27:28.012Z,90.30
2023-02-03T18:29:59.450Z,90.44
2023-02-03T18:32:30.273Z,90.41
2023-02-03T18:35:09.049Z,90.47
2023-02-03T18:37:38.680Z,90.31
2023-02-03T18:40:22.540Z,90.23
2023-02-03T18:42:57.176Z,90.09
2023-02-03T18:45:35.322Z,90.04
2023-02-03T18:48:13.207Z,89.98
2023-02-03T18:50:45.183Z,90.02
2023-02-03T18:53:20.702Z,90.43
2023-02-03T18:55:59.277Z,90.64
2023-02-03T18:58:52.638Z,90.68
2023-02-03T19:01:34.724Z,90.61
2023-02-03T19:04:08.762Z,90.30
2023-02-03T19:06:54.603Z,90.20
2023-02-03T19:09:28.690Z,90.11
2023-02-03T19:12:04.412Z,90.36
2023-02-03T19:14:40.440Z,90.12
2023-02-03T19:17:18.920Z,90.20
2023-02-03T19:19:55.377Z,90.20
2023-02-03T19:22:27.582Z,89.97
2023-02-03T19:25:08.524Z,90.04
2023-02-03T19:27:45.830Z,89.93
2023-02-03T19:30:23.449Z,89.98
2023-02-03T19:33:04.508Z,90.27
2023-02-03T19:38:56.941Z,90.09
2023-02-03T19:45:41.827Z,89.91
2023-02-03T19:48:21.499Z,90.08
2023-02-03T19:54:32.710Z,89.89
2023-02-03T19:57:30.453Z,89.96
2023-02-03T20:01:27.219Z,89.99
2023-02-03T20:08:27.104Z,89.83
2023-02-03T20:11:04.157Z,89.94
2023-02-03T20:14:30.463Z,90.10
2023-02-03T20:22:01.591Z,90.03
2023-02-03T20:24:38.486Z,89.96
2023-02-03T20:27:17.240Z,89.92
2023-02-03T20:29:57.916Z,90.02
2023-02-03T20:32:38.590Z,89.99
2023-02-03T20:35:15.491Z,89.99
2023-02-03T20:37:50.631Z,90.08
2023-02-03T20:40:29.137Z,90.02
2023-02-03T20:43:18.141Z,89.99
2023-02-03T20:46:01.730Z,90.02
2023-02-03T20:48:44.338Z,89.91
2023-02-03T20:51:22.411Z,90.08
2023-02-03T20:54:00.801Z,89.99
2023-02-03T20:56:34.203Z,90.05
2023-02-03T20:59:07.447Z,89.97
2023-02-03T21:01:42.080Z,90.03
2023-02-03T21:04:33.709Z,89.84
2023-02-03T21:07:14.911Z,90.05
2023-02-03T21:09:48.032Z,90.02
2023-02-03T21:12:21.634Z,90.00
2023-02-03T21:14:56.861Z,90.26
2023-02-03T21:17:28.928Z,90.41
2023-02-03T21:20:05.033Z,89.82
2023-02-03T21:22:40.346Z,90.26
2023-02-03T21:25:25.496Z,90.17
2023-02-03T21:27:59.070Z,90.11
2023-02-03T21:30:38.154Z,89.95
2023-02-03T21:33:47.414Z,90.00
2023-02-03T21:36:20.828Z,89.90
2023-02-03T21:38:58.606Z,90.01
2023-02-03T21:41:39.324Z,89.88
2023-02-03T21:44:31.829Z,89.81
2023-02-03T21:47:16.262Z,89.95
2023-02-03T21:49:50.439Z,89.93
2023-02-03T21:52:22.936Z,90.04
2023-02-03T21:54:54.922Z,89.87
2023-02-03T21:57:27.590Z,90.00
2023-02-03T21:59:58.916Z,89.81
2023-02-03T22:02:49.632Z,89.93
2023-02-03T22:05:23.029Z,90.52
2023-02-03T22:07:55.208Z,90.49
2023-02-03T22:10:27.610Z,90.71
2023-02-03T22:12:58.506Z,90.68
2023-02-03T22:15:28.339Z,90.77
2023-02-03T22:18:00.372Z,90.83
2023-02-03T22:20:31.470Z,90.65
2023-02-03T22:23:03.493Z,90.51
2023-02-03T22:25:33.627Z,90.32
2023-02-03T22:28:05.375Z,90.68
2023-02-03T22:30:37.000Z,90.63
2023-02-03T22:33:08.274Z,90.61
2023-02-03T22:35:37.638Z,90.54
2023-02-03T22:38:07.275Z,90.73
2023-02-03T22:40:39.731Z,91.08
2023-02-03T22:43:10.569Z,91.28
2023-02-03T22:45:42.427Z,91.09
2023-02-03T22:48:13.986Z,90.83
2023-02-03T22:50:43.935Z,90.94
2023-02-03T22:53:15.716Z,90.80
2023-02-03T22:55:45.912Z,90.61
2023-02-03T22:58:16.711Z,90.58
2023-02-03T23:00:47.420Z,90.37
2023-02-03T23:03:18.799Z,90.40
2023-02-03T23:05:49.597Z,90.39
2023-02-03T23:08:24.001Z,90.30
2023-02-03T23:10:57.374Z,90.31
2023-02-03T23:13:27.126Z,90.24
2023-02-03T23:15:57.717Z,90.18
2023-02-03T23:18:28.163Z,90.23
2023-02-03T23:21:02.116Z,90.26
2023-02-03T23:23:32.355Z,90.08
2023-02-03T23:26:04.000Z,90.09
2023-02-03T23:28:34.057Z,90.09
2023-02-03T23:31:05.502Z,90.11
2023-02-03T23:33:35.549Z,90.07
2023-02-03T23:36:06.312Z,90.03
2023-02-03T23:38:38.155Z,89.87
2023-02-03T23:41:07.188Z,89.79
2023-02-03T23:44:02.240Z,89.84
2023-02-03T23:46:36.015Z,89.87
2023-02-03T23:49:06.938Z,89.84
2023-02-03T23:51:39.841Z,89.87
2023-02-03T23:54:12.450Z,89.94
2023-02-03T23:56:43.431Z,89.93
2023-02-03T23:59:13.453Z,90.04
